sensor_id;sensor_type;location;lat;lon;timestamp;pressure;altitude;pressure_sealevel;temperature;humidity
23899;BME280;20544;50.018;20.010;2023-05-21T00:01:39;99351.77;;;14.80;100.00
23899;BME280;20544;50.018;20.010;2023-05-21T00:05:02;99345.39;;;14.75;100.00
23899;BME280;20544;50.018;20.010;2023-05-21T00:08:22;99345.53;;;14.66;100.00
23899;BME280;20544;50.018;20.010;2023-05-21T00:11:39;99344.61;;;14.59;100.00
23899;BME280;20544;50.018;20.010;2023-05-21T00:14:56;99347.45;;;14.51;100.00
23899;BME280;20544;50.018;20.010;2023-05-21T00:18:13;99345.55;;;14.45;100.00
23899;BME280;20544;50.018;20.010;2023-05-21T00:21:30;99338.19;;;14.47;100.00
23899;BME280;20544;50.018;20.010;2023-05-21T00:24:48;99338.36;;;14.45;100.00
23899;BME280;20544;50.018;20.010;2023-05-21T00:28:05;99336.33;;;14.47;100.00
23899;BME280;20544;50.018;20.010;2023-05-21T00:31:22;99334.23;;;14.43;100.00
23899;BME280;20544;50.018;20.010;2023-05-21T00:34:40;99340.02;;;14.46;100.00
23899;BME280;20544;50.018;20.010;2023-05-21T00:37:58;99337.34;;;14.46;100.00
23899;BME280;20544;50.018;20.010;2023-05-21T00:41:15;99339.33;;;14.37;100.00
23899;BME280;20544;50.018;20.010;2023-05-21T00:44:34;99328.86;;;14.36;100.00
23899;BME280;20544;50.018;20.010;2023-05-21T00:47:51;99342.00;;;14.37;100.00
23899;BME280;20544;50.018;20.010;2023-05-21T00:51:08;99335.25;;;14.42;100.00
23899;BME280;20544;50.018;20.010;2023-05-21T00:54:27;99331.13;;;14.39;100.00
23899;BME280;20544;50.018;20.010;2023-05-21T00:57:44;99336.91;;;14.43;100.00
23899;BME280;20544;50.018;20.010;2023-05-21T01:01:02;99329.73;;;14.43;100.00
23899;BME280;20544;50.018;20.010;2023-05-21T01:04:23;99323.96;;;14.39;100.00
23899;BME280;20544;50.018;20.010;2023-05-21T01:07:41;99330.52;;;14.37;100.00
23899;BME280;20544;50.018;20.010;2023-05-21T01:10:58;99325.34;;;14.35;100.00
23899;BME280;20544;50.018;20.010;2023-05-21T01:14:16;99322.27;;;14.32;100.00
23899;BME280;20544;50.018;20.010;2023-05-21T01:17:34;99312.61;;;14.31;100.00
23899;BME280;20544;50.018;20.010;2023-05-21T01:20:51;99311.16;;;14.28;100.00
23899;BME280;20544;50.018;20.010;2023-05-21T01:24:09;99315.20;;;14.24;100.00
23899;BME280;20544;50.018;20.010;2023-05-21T01:27:27;99310.88;;;14.23;100.00
23899;BME280;20544;50.018;20.010;2023-05-21T01:30:45;99304.36;;;14.26;100.00
23899;BME280;20544;50.018;20.010;2023-05-21T01:34:05;99304.36;;;14.26;100.00
23899;BME280;20544;50.018;20.010;2023-05-21T01:37:29;99301.05;;;14.23;100.00
23899;BME280;20544;50.018;20.010;2023-05-21T01:40:50;99300.66;;;14.27;100.00
23899;BME280;20544;50.018;20.010;2023-05-21T01:44:08;99305.74;;;14.21;100.00
23899;BME280;20544;50.018;20.010;2023-05-21T01:47:26;99293.42;;;14.20;100.00
23899;BME280;20544;50.018;20.010;2023-05-21T01:50:47;99288.92;;;14.21;100.00
23899;BME280;20544;50.018;20.010;2023-05-21T01:54:05;99293.86;;;14.24;100.00
23899;BME280;20544;50.018;20.010;2023-05-21T01:57:23;99289.17;;;14.26;100.00
23899;BME280;20544;50.018;20.010;2023-05-21T02:00:40;99294.27;;;14.21;100.00
23899;BME280;20544;50.018;20.010;2023-05-21T02:03:59;99289.73;;;14.21;100.00
23899;BME280;20544;50.018;20.010;2023-05-21T02:07:17;99290.58;;;14.22;100.00
23899;BME280;20544;50.018;20.010;2023-05-21T02:10:34;99292.41;;;14.21;100.00
23899;BME280;20544;50.018;20.010;2023-05-21T02:13:51;99286.45;;;14.19;100.00
23899;BME280;20544;50.018;20.010;2023-05-21T02:17:09;99285.42;;;14.20;100.00
23899;BME280;20544;50.018;20.010;2023-05-21T02:20:27;99284.41;;;14.21;100.00
23899;BME280;20544;50.018;20.010;2023-05-21T02:23:44;99282.14;;;14.18;100.00
23899;BME280;20544;50.018;20.010;2023-05-21T02:27:01;99272.48;;;14.17;100.00
23899;BME280;20544;50.018;20.010;2023-05-21T02:30:19;99276.16;;;14.16;100.00
23899;BME280;20544;50.018;20.010;2023-05-21T02:33:35;99281.05;;;14.13;100.00
23899;BME280;20544;50.018;20.010;2023-05-21T02:36:56;99271.80;;;14.08;100.00
23899;BME280;20544;50.018;20.010;2023-05-21T02:40:13;99281.82;;;14.06;100.00
23899;BME280;20544;50.018;20.010;2023-05-21T02:43:30;99276.89;;;14.03;100.00
23899;BME280;20544;50.018;20.010;2023-05-21T02:46:48;99279.92;;;14.00;100.00
23899;BME280;20544;50.018;20.010;2023-05-21T02:50:08;99280.94;;;13.99;100.00
23899;BME280;20544;50.018;20.010;2023-05-21T02:53:29;99273.09;;;13.91;100.00
23899;BME280;20544;50.018;20.010;2023-05-21T02:56:47;99276.20;;;13.95;100.00
23899;BME280;20544;50.018;20.010;2023-05-21T03:00:05;99270.42;;;13.91;100.00
23899;BME280;20544;50.018;20.010;2023-05-21T03:03:25;99266.09;;;13.90;100.00
23899;BME280;20544;50.018;20.010;2023-05-21T03:06:42;99272.69;;;13.94;100.00
23899;BME280;20544;50.018;20.010;2023-05-21T03:10:00;99263.63;;;13.88;100.00
23899;BME280;20544;50.018;20.010;2023-05-21T03:13:17;99268.97;;;13.88;100.00
23899;BME280;20544;50.018;20.010;2023-05-21T03:16:35;99264.64;;;13.87;100.00
23899;BME280;20544;50.018;20.010;2023-05-21T03:19:52;99268.44;;;13.78;100.00
23899;BME280;20544;50.018;20.010;2023-05-21T03:23:09;99271.55;;;13.82;100.00
23899;BME280;20544;50.018;20.010;2023-05-21T03:26:27;99281.84;;;13.85;100.00
23899;BME280;20544;50.018;20.010;2023-05-21T03:29:44;99265.85;;;13.85;100.00
23899;BME280;20544;50.018;20.010;2023-05-21T03:33:03;99260.27;;;13.80;100.00
23899;BME280;20544;50.018;20.010;2023-05-21T03:36:21;99265.60;;;13.80;100.00
23899;BME280;20544;50.018;20.010;2023-05-21T03:39:38;99261.92;;;13.81;100.00
23899;BME280;20544;50.018;20.010;2023-05-21T03:42:55;99265.97;;;13.77;100.00
23899;BME280;20544;50.018;20.010;2023-05-21T03:46:13;99259.75;;;13.69;100.00
23899;BME280;20544;50.018;20.010;2023-05-21T03:49:47;99267.73;;;13.69;100.00
23899;BME280;20544;50.018;20.010;2023-05-21T03:53:04;99264.91;;;13.71;100.00
23899;BME280;20544;50.018;20.010;2023-05-21T03:56:21;99262.24;;;13.71;100.00
23899;BME280;20544;50.018;20.010;2023-05-21T03:59:39;99262.69;;;13.74;100.00
23899;BME280;20544;50.018;20.010;2023-05-21T04:02:56;99248.52;;;13.74;100.00
23899;BME280;20544;50.018;20.010;2023-05-21T04:06:14;99267.63;;;13.78;100.00
23899;BME280;20544;50.018;20.010;2023-05-21T04:09:31;99264.95;;;13.78;100.00
23899;BME280;20544;50.018;20.010;2023-05-21T04:12:48;99259.27;;;13.81;100.00
23899;BME280;20544;50.018;20.010;2023-05-21T04:16:07;99269.77;;;13.89;100.00
23899;BME280;20544;50.018;20.010;2023-05-21T04:19:25;99269.21;;;13.94;100.00
23899;BME280;20544;50.018;20.010;2023-05-21T04:22:42;99269.21;;;13.94;100.00
23899;BME280;20544;50.018;20.010;2023-05-21T04:26:00;99267.43;;;14.01;100.00
23899;BME280;20544;50.018;20.010;2023-05-21T04:29:19;99271.59;;;14.10;100.00
23899;BME280;20544;50.018;20.010;2023-05-21T04:32:36;99278.02;;;14.16;100.00
23899;BME280;20544;50.018;20.010;2023-05-21T04:35:54;99279.06;;;14.21;100.00
23899;BME280;20544;50.018;20.010;2023-05-21T04:39:12;99280.35;;;14.26;100.00
23899;BME280;20544;50.018;20.010;2023-05-21T04:42:29;99277.48;;;14.27;100.00
23899;BME280;20544;50.018;20.010;2023-05-21T04:45:48;99273.27;;;14.39;100.00
23899;BME280;20544;50.018;20.010;2023-05-21T04:49:05;99278.05;;;14.51;100.00
23899;BME280;20544;50.018;20.010;2023-05-21T04:52:23;99285.66;;;14.54;100.00
23899;BME280;20544;50.018;20.010;2023-05-21T04:55:40;99280.55;;;14.59;100.00
23899;BME280;20544;50.018;20.010;2023-05-21T04:58:57;99282.98;;;14.54;100.00
23899;BME280;20544;50.018;20.010;2023-05-21T05:02:14;99278.78;;;14.66;100.00
23899;BME280;20544;50.018;20.010;2023-05-21T05:05:38;99277.22;;;14.79;100.00
23899;BME280;20544;50.018;20.010;2023-05-21T05:08:55;99281.61;;;14.93;100.00
23899;BME280;20544;50.018;20.010;2023-05-21T05:12:12;99277.13;;;15.00;100.00
23899;BME280;20544;50.018;20.010;2023-05-21T05:15:29;99274.47;;;15.00;100.00
23899;BME280;20544;50.018;20.010;2023-05-21T05:18:46;99285.39;;;15.12;100.00
23899;BME280;20544;50.018;20.010;2023-05-21T05:22:05;99288.70;;;15.14;100.00
23899;BME280;20544;50.018;20.010;2023-05-21T05:25:22;99302.06;;;15.21;100.00
23899;BME280;20544;50.018;20.010;2023-05-21T05:28:40;99287.28;;;15.25;100.00
23899;BME280;20544;50.018;20.010;2023-05-21T05:31:57;99306.84;;;15.32;100.00
23899;BME280;20544;50.018;20.010;2023-05-21T05:35:15;99295.98;;;15.41;100.00
23899;BME280;20544;50.018;20.010;2023-05-21T05:38:32;99276.50;;;15.60;100.00
23899;BME280;20544;50.018;20.010;2023-05-21T05:41:50;99288.25;;;15.79;100.00
23899;BME280;20544;50.018;20.010;2023-05-21T05:45:09;99279.25;;;16.00;100.00
23899;BME280;20544;50.018;20.010;2023-05-21T05:48:28;99287.08;;;16.15;100.00
23899;BME280;20544;50.018;20.010;2023-05-21T05:51:45;99292.21;;;16.17;100.00
23899;BME280;20544;50.018;20.010;2023-05-21T05:55:04;99285.63;;;16.20;100.00
23899;BME280;20544;50.018;20.010;2023-05-21T05:58:22;99289.34;;;16.25;100.00
23899;BME280;20544;50.018;20.010;2023-05-21T06:01:41;99276.36;;;16.36;100.00
23899;BME280;20544;50.018;20.010;2023-05-21T06:04:59;99283.77;;;16.40;100.00
23899;BME280;20544;50.018;20.010;2023-05-21T06:08:16;99276.75;;;16.53;100.00
23899;BME280;20544;50.018;20.010;2023-05-21T06:11:33;99276.52;;;16.68;100.00
23899;BME280;20544;50.018;20.010;2023-05-21T06:14:50;99282.87;;;16.73;100.00
23899;BME280;20544;50.018;20.010;2023-05-21T06:18:07;99276.27;;;16.82;100.00
23899;BME280;20544;50.018;20.010;2023-05-21T06:21:24;99275.24;;;16.77;100.00
23899;BME280;20544;50.018;20.010;2023-05-21T06:24:43;99277.48;;;16.87;100.00
23899;BME280;20544;50.018;20.010;2023-05-21T06:28:00;99278.91;;;17.03;100.00
23899;BME280;20544;50.018;20.010;2023-05-21T06:31:17;99269.58;;;17.12;100.00
23899;BME280;20544;50.018;20.010;2023-05-21T06:34:34;99273.05;;;17.26;100.00
23899;BME280;20544;50.018;20.010;2023-05-21T06:37:51;99274.83;;;17.39;100.00
23899;BME280;20544;50.018;20.010;2023-05-21T06:41:08;99277.69;;;17.44;100.00
23899;BME280;20544;50.018;20.010;2023-05-21T06:44:33;99278.65;;;17.56;100.00
23899;BME280;20544;50.018;20.010;2023-05-21T06:47:51;99280.47;;;17.62;100.00
23899;BME280;20544;50.018;20.010;2023-05-21T06:51:09;99273.63;;;17.67;100.00
23899;BME280;20544;50.018;20.010;2023-05-21T06:54:27;99272.28;;;17.83;100.00
23899;BME280;20544;50.018;20.010;2023-05-21T06:57:45;99262.39;;;17.83;100.00
23899;BME280;20544;50.018;20.010;2023-05-21T07:01:02;99263.95;;;17.98;100.00
23899;BME280;20544;50.018;20.010;2023-05-21T07:04:20;99272.77;;;18.05;100.00
23899;BME280;20544;50.018;20.010;2023-05-21T07:07:37;99266.92;;;18.15;100.00
23899;BME280;20544;50.018;20.010;2023-05-21T07:10:56;99269.30;;;18.23;100.00
23899;BME280;20544;50.018;20.010;2023-05-21T07:14:21;99270.91;;;18.31;100.00
23899;BME280;20544;50.018;20.010;2023-05-21T07:17:38;99267.77;;;18.34;100.00
23899;BME280;20544;50.018;20.010;2023-05-21T07:20:55;99263.09;;;18.48;100.00
23899;BME280;20544;50.018;20.010;2023-05-21T07:24:12;99267.14;;;18.57;100.00
23899;BME280;20544;50.018;20.010;2023-05-21T07:27:29;99255.28;;;18.65;100.00
23899;BME280;20544;50.018;20.010;2023-05-21T07:30:47;99265.35;;;19.06;100.00
23899;BME280;20544;50.018;20.010;2023-05-21T07:34:05;99254.91;;;19.17;100.00
23899;BME280;20544;50.018;20.010;2023-05-21T07:37:22;99260.92;;;19.31;100.00
23899;BME280;20544;50.018;20.010;2023-05-21T07:40:39;99253.67;;;19.62;100.00
23899;BME280;20544;50.018;20.010;2023-05-21T07:43:56;99257.73;;;19.95;100.00
23899;BME280;20544;50.018;20.010;2023-05-21T07:47:16;99261.02;;;20.09;100.00
23899;BME280;20544;50.018;20.010;2023-05-21T07:50:35;99264.55;;;20.57;100.00
23899;BME280;20544;50.018;20.010;2023-05-21T07:53:51;99259.16;;;20.80;100.00
23899;BME280;20544;50.018;20.010;2023-05-21T07:57:11;99261.61;;;21.23;100.00
23899;BME280;20544;50.018;20.010;2023-05-21T08:00:41;99270.02;;;21.67;100.00
23899;BME280;20544;50.018;20.010;2023-05-21T08:03:58;99265.92;;;22.16;100.00
23899;BME280;20544;50.018;20.010;2023-05-21T08:07:16;99267.25;;;22.47;100.00
23899;BME280;20544;50.018;20.010;2023-05-21T08:10:32;99262.97;;;22.51;100.00
23899;BME280;20544;50.018;20.010;2023-05-21T08:13:50;99270.29;;;22.95;100.00
23899;BME280;20544;50.018;20.010;2023-05-21T08:17:07;99256.66;;;23.29;100.00
23899;BME280;20544;50.018;20.010;2023-05-21T08:20:25;99277.16;;;23.80;100.00
23899;BME280;20544;50.018;20.010;2023-05-21T08:23:42;99262.27;;;24.10;100.00
23899;BME280;20544;50.018;20.010;2023-05-21T08:26:59;99267.47;;;24.59;100.00
23899;BME280;20544;50.018;20.010;2023-05-21T08:30:16;99270.98;;;24.60;100.00
23899;BME280;20544;50.018;20.010;2023-05-21T08:33:35;99277.77;;;24.62;100.00
23899;BME280;20544;50.018;20.010;2023-05-21T08:41:28;99267.93;;;24.46;100.00
23899;BME280;20544;50.018;20.010;2023-05-21T08:44:47;99269.24;;;24.86;100.00
23899;BME280;20544;50.018;20.010;2023-05-21T08:48:07;99262.16;;;24.80;100.00
23899;BME280;20544;50.018;20.010;2023-05-21T08:51:28;99263.73;;;24.65;100.00
23899;BME280;20544;50.018;20.010;2023-05-21T08:54:47;99265.83;;;24.58;100.00
23899;BME280;20544;50.018;20.010;2023-05-21T08:58:05;99256.23;;;24.83;100.00
23899;BME280;20544;50.018;20.010;2023-05-21T09:01:23;99261.22;;;25.17;100.00
23899;BME280;20544;50.018;20.010;2023-05-21T09:04:47;99266.89;;;25.05;100.00
23899;BME280;20544;50.018;20.010;2023-05-21T09:08:10;99263.11;;;25.06;100.00
23899;BME280;20544;50.018;20.010;2023-05-21T09:11:31;99256.88;;;25.16;100.00
23899;BME280;20544;50.018;20.010;2023-05-21T09:14:51;99252.05;;;25.33;100.00
23899;BME280;20544;50.018;20.010;2023-05-21T09:18:10;99246.63;;;25.33;100.00
23899;BME280;20544;50.018;20.010;2023-05-21T09:21:31;99246.88;;;25.32;100.00
23899;BME280;20544;50.018;20.010;2023-05-21T09:24:54;99248.31;;;25.50;100.00
23899;BME280;20544;50.018;20.010;2023-05-21T09:28:15;99252.14;;;25.70;100.00
23899;BME280;20544;50.018;20.010;2023-05-21T09:31:32;99243.71;;;25.71;100.00
23899;BME280;20544;50.018;20.010;2023-05-21T09:34:51;99251.55;;;25.47;100.00
23899;BME280;20544;50.018;20.010;2023-05-21T09:38:09;99240.34;;;25.17;100.00
23899;BME280;20544;50.018;20.010;2023-05-21T09:41:35;99236.30;;;25.35;100.00
23899;BME280;20544;50.018;20.010;2023-05-21T09:44:52;99245.52;;;25.34;100.00
23899;BME280;20544;50.018;20.010;2023-05-21T09:48:09;99234.92;;;25.17;100.00
23899;BME280;20544;50.018;20.010;2023-05-21T09:51:25;99234.87;;;25.07;100.00
23899;BME280;20544;50.018;20.010;2023-05-21T09:54:42;99237.28;;;24.98;100.00
23899;BME280;20544;50.018;20.010;2023-05-21T09:58:00;99230.27;;;25.02;100.00
23899;BME280;20544;50.018;20.010;2023-05-21T10:01:20;99231.63;;;25.05;100.00
23899;BME280;20544;50.018;20.010;2023-05-21T10:04:37;99228.07;;;24.99;100.00
23899;BME280;20544;50.018;20.010;2023-05-21T10:08:00;99222.34;;;24.91;100.00
23899;BME280;20544;50.018;20.010;2023-05-21T10:11:18;99219.70;;;25.11;100.00
23899;BME280;20544;50.018;20.010;2023-05-21T10:14:38;99214.84;;;25.18;100.00
23899;BME280;20544;50.018;20.010;2023-05-21T10:17:57;99213.50;;;25.31;100.00
23899;BME280;20544;50.018;20.010;2023-05-21T10:21:15;99211.30;;;25.23;100.00
23899;BME280;20544;50.018;20.010;2023-05-21T10:24:33;99206.09;;;25.01;100.00
23899;BME280;20544;50.018;20.010;2023-05-21T10:27:50;99206.42;;;25.15;100.00
23899;BME280;20544;50.018;20.010;2023-05-21T10:31:08;99200.16;;;25.14;100.00
23899;BME280;20544;50.018;20.010;2023-05-21T10:34:25;99203.95;;;25.08;100.00
23899;BME280;20544;50.018;20.010;2023-05-21T10:37:41;99212.92;;;25.09;100.00
23899;BME280;20544;50.018;20.010;2023-05-21T10:40:59;99216.11;;;24.85;100.00
23899;BME280;20544;50.018;20.010;2023-05-21T10:44:22;99206.05;;;24.80;100.00
23899;BME280;20544;50.018;20.010;2023-05-21T10:47:51;99204.16;;;24.86;100.00
23899;BME280;20544;50.018;20.010;2023-05-21T10:51:19;99196.71;;;24.61;100.00
23899;BME280;20544;50.018;20.010;2023-05-21T10:55:00;99189.11;;;24.52;100.00
23899;BME280;20544;50.018;20.010;2023-05-21T10:58:46;99182.08;;;24.62;100.00
23899;BME280;20544;50.018;20.010;2023-05-21T11:02:20;99181.73;;;24.43;100.00
23899;BME280;20544;50.018;20.010;2023-05-21T11:05:52;99176.63;;;24.51;100.00
23899;BME280;20544;50.018;20.010;2023-05-21T11:09:15;99176.33;;;24.48;100.00
23899;BME280;20544;50.018;20.010;2023-05-21T11:12:35;99177.70;;;24.50;100.00
23899;BME280;20544;50.018;20.010;2023-05-21T11:16:08;99176.53;;;24.36;100.00
23899;BME280;20544;50.018;20.010;2023-05-21T11:19:39;99168.92;;;24.28;100.00
23899;BME280;20544;50.018;20.010;2023-05-21T11:23:00;99168.16;;;24.37;100.00
23899;BME280;20544;50.018;20.010;2023-05-21T11:26:18;99170.53;;;24.29;100.00
23899;BME280;20544;50.018;20.010;2023-05-21T11:29:41;99185.02;;;24.02;100.00
23899;BME280;20544;50.018;20.010;2023-05-21T11:33:17;99172.16;;;23.87;100.00
23899;BME280;20544;50.018;20.010;2023-05-21T11:36:35;99179.31;;;23.66;100.00
23899;BME280;20544;50.018;20.010;2023-05-21T11:39:52;99176.31;;;23.62;100.00
23899;BME280;20544;50.018;20.010;2023-05-21T11:43:10;99176.23;;;23.52;100.00
23899;BME280;20544;50.018;20.010;2023-05-21T11:46:26;99180.42;;;23.37;100.00
23899;BME280;20544;50.018;20.010;2023-05-21T11:49:45;99160.72;;;23.42;100.00
23899;BME280;20544;50.018;20.010;2023-05-21T11:53:03;99158.81;;;23.42;100.00
23899;BME280;20544;50.018;20.010;2023-05-21T11:56:19;99143.72;;;23.47;100.00
23899;BME280;20544;50.018;20.010;2023-05-21T11:59:36;99151.99;;;23.35;100.00
23899;BME280;20544;50.018;20.010;2023-05-21T12:02:53;99147.78;;;23.17;100.00
23899;BME280;20544;50.018;20.010;2023-05-21T12:06:10;99146.80;;;23.28;100.00
23899;BME280;20544;50.018;20.010;2023-05-21T12:09:28;99148.63;;;23.22;100.00
23899;BME280;20544;50.018;20.010;2023-05-21T12:12:45;99152.28;;;23.11;100.00
23899;BME280;20544;50.018;20.010;2023-05-21T12:16:06;99151.67;;;23.04;100.00
23899;BME280;20544;50.018;20.010;2023-05-21T12:19:24;99144.39;;;23.04;100.00
23899;BME280;20544;50.018;20.010;2023-05-21T12:22:43;99142.48;;;23.05;100.00
23899;BME280;20544;50.018;20.010;2023-05-21T12:26:02;99153.75;;;22.97;100.00
23899;BME280;20544;50.018;20.010;2023-05-21T12:29:20;99167.22;;;22.91;100.00
23899;BME280;20544;50.018;20.010;2023-05-21T12:32:37;99148.51;;;22.85;100.00
23899;BME280;20544;50.018;20.010;2023-05-21T12:35:57;99152.90;;;22.91;100.00
23899;BME280;20544;50.018;20.010;2023-05-21T12:39:15;99144.88;;;23.01;100.00
23899;BME280;20544;50.018;20.010;2023-05-21T12:42:35;99141.56;;;22.94;100.00
23899;BME280;20544;50.018;20.010;2023-05-21T12:45:54;99140.80;;;22.99;100.00
23899;BME280;20544;50.018;20.010;2023-05-21T12:49:31;99133.97;;;22.91;100.00
23899;BME280;20544;50.018;20.010;2023-05-21T12:52:52;99135.34;;;22.93;100.00
23899;BME280;20544;50.018;20.010;2023-05-21T12:56:14;99141.98;;;22.81;100.00
23899;BME280;20544;50.018;20.010;2023-05-21T12:59:51;99137.69;;;22.85;100.00
23899;BME280;20544;50.018;20.010;2023-05-21T13:03:09;99134.63;;;22.76;100.00
23899;BME280;20544;50.018;20.010;2023-05-21T13:06:27;99128.11;;;22.72;100.00
23899;BME280;20544;50.018;20.010;2023-05-21T13:09:45;99137.82;;;22.73;100.00
23899;BME280;20544;50.018;20.010;2023-05-21T13:13:02;99138.83;;;22.67;100.00
23899;BME280;20544;50.018;20.010;2023-05-21T13:16:21;99130.67;;;22.61;100.00
23899;BME280;20544;50.018;20.010;2023-05-21T13:19:38;99125.78;;;22.58;100.00
23899;BME280;20544;50.018;20.010;2023-05-21T13:22:55;99128.48;;;22.58;100.00
23899;BME280;20544;50.018;20.010;2023-05-21T13:26:15;99115.72;;;22.54;100.00
23899;BME280;20544;50.018;20.010;2023-05-21T13:29:32;99119.05;;;22.61;100.00
23899;BME280;20544;50.018;20.010;2023-05-21T13:32:50;99125.84;;;22.64;100.00
23899;BME280;20544;50.018;20.010;2023-05-21T13:39:11;99118.37;;;22.49;100.00
23899;BME280;20544;50.018;20.010;2023-05-21T13:42:27;99104.28;;;22.46;100.00
23899;BME280;20544;50.018;20.010;2023-05-21T13:45:48;99109.69;;;22.46;100.00
23899;BME280;20544;50.018;20.010;2023-05-21T13:49:05;99108.37;;;22.49;100.00
23899;BME280;20544;50.018;20.010;2023-05-21T13:52:23;99111.84;;;22.44;100.00
23899;BME280;20544;50.018;20.010;2023-05-21T13:55:40;99100.78;;;22.46;100.00
23899;BME280;20544;50.018;20.010;2023-05-21T13:58:56;99099.98;;;22.45;100.00
23899;BME280;20544;50.018;20.010;2023-05-21T14:02:14;99107.91;;;22.35;100.00
23899;BME280;20544;50.018;20.010;2023-05-21T14:05:33;99091.70;;;22.35;100.00
23899;BME280;20544;50.018;20.010;2023-05-21T14:08:49;99087.04;;;22.30;100.00
23899;BME280;20544;50.018;20.010;2023-05-21T14:12:08;99084.34;;;22.30;100.00
23899;BME280;20544;50.018;20.010;2023-05-21T14:15:25;99095.14;;;22.30;100.00
23899;BME280;20544;50.018;20.010;2023-05-21T14:18:43;99095.46;;;22.34;100.00
23899;BME280;20544;50.018;20.010;2023-05-21T14:21:59;99093.34;;;22.36;100.00
23899;BME280;20544;50.018;20.010;2023-05-21T14:25:16;99095.46;;;22.34;100.00
23899;BME280;20544;50.018;20.010;2023-05-21T14:28:33;99092.22;;;22.32;100.00
23899;BME280;20544;50.018;20.010;2023-05-21T14:31:50;99095.14;;;22.30;100.00
23899;BME280;20544;50.018;20.010;2023-05-21T14:35:08;99093.77;;;22.28;100.00
23899;BME280;20544;50.018;20.010;2023-05-21T14:38:24;99084.59;;;22.29;100.00
23899;BME280;20544;50.018;20.010;2023-05-21T14:41:41;99080.52;;;22.26;100.00
23899;BME280;20544;50.018;20.010;2023-05-21T14:44:58;99087.13;;;22.36;100.00
23899;BME280;20544;50.018;20.010;2023-05-21T14:48:17;99094.08;;;22.32;100.00
23899;BME280;20544;50.018;20.010;2023-05-21T14:51:35;99083.48;;;22.25;100.00
23899;BME280;20544;50.018;20.010;2023-05-21T14:54:51;99083.73;;;22.23;100.00
23899;BME280;20544;50.018;20.010;2023-05-21T14:58:09;99087.76;;;22.21;100.00
23899;BME280;20544;50.018;20.010;2023-05-21T15:01:26;99083.97;;;22.22;100.00
23899;BME280;20544;50.018;20.010;2023-05-21T15:04:42;99081.27;;;22.22;100.00
23899;BME280;20544;50.018;20.010;2023-05-21T15:08:00;99089.94;;;22.24;100.00
23899;BME280;20544;50.018;20.010;2023-05-21T15:11:18;99079.97;;;22.24;100.00
23899;BME280;20544;50.018;20.010;2023-05-21T15:14:34;99080.20;;;22.23;100.00
23899;BME280;20544;50.018;20.010;2023-05-21T15:17:51;99093.65;;;22.18;100.00
23899;BME280;20544;50.018;20.010;2023-05-21T15:21:09;99081.20;;;22.17;100.00
23899;BME280;20544;50.018;20.010;2023-05-21T15:24:26;99082.78;;;22.12;100.00
23899;BME280;20544;50.018;20.010;2023-05-21T15:27:43;99075.26;;;22.14;100.00
23899;BME280;20544;50.018;20.010;2023-05-21T15:31:00;99080.66;;;22.14;100.00
23899;BME280;20544;50.018;20.010;2023-05-21T15:34:16;99068.48;;;22.12;100.00
23899;BME280;20544;50.018;20.010;2023-05-21T15:37:34;99073.30;;;22.10;100.00
23899;BME280;20544;50.018;20.010;2023-05-21T15:40:52;99072.50;;;22.09;100.00
23899;BME280;20544;50.018;20.010;2023-05-21T15:44:09;99070.54;;;22.05;100.00
23899;BME280;20544;50.018;20.010;2023-05-21T15:47:26;99058.10;;;22.04;100.00
23899;BME280;20544;50.018;20.010;2023-05-21T15:50:43;99064.82;;;22.01;100.00
23899;BME280;20544;50.018;20.010;2023-05-21T15:54:00;99064.82;;;22.01;100.00
23899;BME280;20544;50.018;20.010;2023-05-21T15:57:15;99060.91;;;21.92;100.00
23899;BME280;20544;50.018;20.010;2023-05-21T16:00:32;99070.96;;;21.96;100.00
23899;BME280;20544;50.018;20.010;2023-05-21T16:03:52;99073.92;;;21.95;100.00
23899;BME280;20544;50.018;20.010;2023-05-21T16:07:09;99061.00;;;21.97;100.00
23899;BME280;20544;50.018;20.010;2023-05-21T16:10:28;99064.76;;;21.96;100.00
23899;BME280;20544;50.018;20.010;2023-05-21T16:13:46;99070.16;;;21.96;100.00
23899;BME280;20544;50.018;20.010;2023-05-21T16:17:03;99065.81;;;21.95;100.00
23899;BME280;20544;50.018;20.010;2023-05-21T16:20:20;99067.14;;;21.92;100.00
23899;BME280;20544;50.018;20.010;2023-05-21T16:23:41;99066.23;;;21.87;100.00
23899;BME280;20544;50.018;20.010;2023-05-21T16:26:58;99064.92;;;21.89;100.00
23899;BME280;20544;50.018;20.010;2023-05-21T16:30:15;99056.50;;;21.86;100.00
23899;BME280;20544;50.018;20.010;2023-05-21T16:33:32;99065.92;;;21.83;100.00
23899;BME280;20544;50.018;20.010;2023-05-21T16:36:49;99057.82;;;21.83;100.00
23899;BME280;20544;50.018;20.010;2023-05-21T16:40:09;99064.53;;;21.80;100.00
23899;BME280;20544;50.018;20.010;2023-05-21T16:43:28;99066.36;;;21.75;100.00
23899;BME280;20544;50.018;20.010;2023-05-21T16:46:45;99070.86;;;21.69;100.00
23899;BME280;20544;50.018;20.010;2023-05-21T16:50:03;99061.70;;;21.70;100.00
23899;BME280;20544;50.018;20.010;2023-05-21T16:53:21;99068.89;;;21.64;100.00
23899;BME280;20544;50.018;20.010;2023-05-21T16:56:38;99069.66;;;21.60;100.00
23899;BME280;20544;50.018;20.010;2023-05-21T16:59:55;99071.78;;;21.58;100.00
23899;BME280;20544;50.018;20.010;2023-05-21T17:03:13;99066.86;;;21.55;100.00
23899;BME280;20544;50.018;20.010;2023-05-21T17:06:30;99071.09;;;21.50;100.00
23899;BME280;20544;50.018;20.010;2023-05-21T17:09:47;99073.72;;;21.45;100.00
23899;BME280;20544;50.018;20.010;2023-05-21T17:13:04;99070.95;;;21.40;100.00